GWATS EGSU-EGPB
Flight info
| Callsign | GWATS |
|---|---|
| Flight time | N/A |
| Altitude | 6000 |
| Route | WELIN N57 TNT M868 TIPIL N57 POL N601 TLA/N0163F070 N864 PIPAR DCT SMOKI DCT WAFIL |
| Aircraft | DA62/L-SDFGRY/C |
Departure
| Time | 2026-04-22 11:52 |
|---|---|
| Airport | Duxford Aerodrome (EGSU) |
Arrival
| Time | N/A |
|---|---|
| Airport | Sumburgh Airport (EGPB) |
| Time | Latitude | Longitude | Altitude | Speed | Heading |
|---|---|---|---|---|---|
| 2026-04-22 11:40 | 52.09255 | 0.12782 | 109 ft | 0 kts | 330° |
| 2026-04-22 11:42 | 52.09256 | 0.12781 | 108 ft | 0 kts | 332° |
| 2026-04-22 11:47 | 52.09262 | 0.12763 | 107 ft | 6 kts | 269° |
| 2026-04-22 11:47 | 52.09244 | 0.12737 | 108 ft | 0 kts | 209° |
| 2026-04-22 11:47 | 52.09241 | 0.12734 | 108 ft | 3 kts | 207° |
| 2026-04-22 11:48 | 52.09196 | 0.12703 | 112 ft | 8 kts | 210° |
| 2026-04-22 11:48 | 52.09157 | 0.12617 | 114 ft | 10 kts | 237° |
| 2026-04-22 11:48 | 52.09117 | 0.12530 | 116 ft | 9 kts | 217° |
| 2026-04-22 11:48 | 52.09058 | 0.12473 | 117 ft | 13 kts | 210° |
| 2026-04-22 11:49 | 52.08965 | 0.12381 | 123 ft | 17 kts | 214° |
| 2026-04-22 11:49 | 52.08850 | 0.12284 | 124 ft | 21 kts | 208° |
| 2026-04-22 11:49 | 52.08743 | 0.12269 | 123 ft | 12 kts | 140° |
| 2026-04-22 11:49 | 52.08763 | 0.12387 | 120 ft | 18 kts | 60° |
| 2026-04-22 11:50 | 52.08878 | 0.12695 | 117 ft | 45 kts | 62° |
| 2026-04-22 11:50 | 52.09087 | 0.13218 | 122 ft | 66 kts | 53° |
| 2026-04-22 11:50 | 52.09435 | 0.13872 | 145 ft | 83 kts | 47° |
| 2026-04-22 11:50 | 52.09869 | 0.14562 | 321 ft | 85 kts | 42° |
| 2026-04-22 11:51 | 52.10338 | 0.15133 | 624 ft | 90 kts | 34° |
| 2026-04-22 11:51 | 52.10798 | 0.15908 | 636 ft | 113 kts | 56° |
| 2026-04-22 11:51 | 52.11357 | 0.17007 | 506 ft | 137 kts | 54° |
| 2026-04-22 11:51 | 52.11987 | 0.18224 | 500 ft | 141 kts | 54° |
| 2026-04-22 11:52 | 52.12622 | 0.19480 | 404 ft | 148 kts | 56° |
| 2026-04-22 11:52 | 52.13262 | 0.20740 | 582 ft | 138 kts | 54° |
| 2026-04-22 11:52 | 52.13851 | 0.21867 | 832 ft | 125 kts | 55° |
| 2026-04-22 11:52 | 52.14405 | 0.22905 | 1087 ft | 124 kts | 53° |
| 2026-04-22 11:53 | 52.15125 | 0.23647 | 1363 ft | 138 kts | 4° |
| 2026-04-22 11:53 | 52.15772 | 0.22369 | 1606 ft | 154 kts | 301° |
| 2026-04-22 11:53 | 52.16202 | 0.20716 | 1771 ft | 169 kts | 297° |
| 2026-04-22 11:53 | 52.16746 | 0.18899 | 1767 ft | 182 kts | 301° |
| 2026-04-22 11:54 | 52.17346 | 0.17155 | 2135 ft | 169 kts | 307° |
| 2026-04-22 11:54 | 52.17945 | 0.15534 | 2550 ft | 168 kts | 306° |
| 2026-04-22 11:54 | 52.18821 | 0.14490 | 2849 ft | 154 kts | 358° |
| 2026-04-22 11:54 | 52.19876 | 0.14207 | 3143 ft | 153 kts | 0° |
| 2026-04-22 11:55 | 52.20932 | 0.13977 | 3434 ft | 151 kts | 2° |
| 2026-04-22 11:55 | 52.21990 | 0.13801 | 3717 ft | 154 kts | 1° |
| 2026-04-22 11:55 | 52.23058 | 0.13627 | 4002 ft | 155 kts | 2° |
| 2026-04-22 11:55 | 52.24123 | 0.13409 | 4373 ft | 152 kts | 1° |
| 2026-04-22 11:56 | 52.25141 | 0.13188 | 4762 ft | 145 kts | 1° |
| 2026-04-22 11:56 | 52.26135 | 0.12867 | 5126 ft | 148 kts | 341° |
| 2026-04-22 11:56 | 52.26761 | 0.11551 | 5503 ft | 153 kts | 286° |
| 2026-04-22 11:56 | 52.26949 | 0.09869 | 5882 ft | 151 kts | 269° |
| 2026-04-22 11:57 | 52.26975 | 0.08138 | 6181 ft | 158 kts | 269° |
| 2026-04-22 11:57 | 52.27008 | 0.06233 | 6202 ft | 179 kts | 269° |
| 2026-04-22 11:57 | 52.27033 | 0.04116 | 6198 ft | 194 kts | 269° |
| 2026-04-22 11:57 | 52.27060 | 0.01930 | 6194 ft | 188 kts | 269° |
| 2026-04-22 11:58 | 52.27086 | -0.00190 | 6190 ft | 185 kts | 269° |
| 2026-04-22 11:58 | 52.27115 | -0.02274 | 6190 ft | 182 kts | 269° |
| 2026-04-22 11:58 | 52.27144 | -0.04323 | 6187 ft | 181 kts | 269° |
| 2026-04-22 11:58 | 52.27170 | -0.06366 | 6183 ft | 178 kts | 269° |
| 2026-04-22 11:59 | 52.27195 | -0.08360 | 6177 ft | 177 kts | 269° |
| 2026-04-22 11:59 | 52.27221 | -0.10493 | 6196 ft | 192 kts | 269° |
| 2026-04-22 11:59 | 52.27232 | -0.12695 | 6193 ft | 201 kts | 268° |
| 2026-04-22 11:59 | 52.27240 | -0.15009 | 6189 ft | 206 kts | 268° |
| 2026-04-22 12:00 | 52.27247 | -0.17383 | 6190 ft | 210 kts | 268° |
| 2026-04-22 12:00 | 52.27254 | -0.19777 | 6186 ft | 212 kts | 268° |
| 2026-04-22 12:00 | 52.27251 | -0.22191 | 6185 ft | 214 kts | 268° |
| 2026-04-22 12:00 | 52.27250 | -0.24609 | 6180 ft | 213 kts | 268° |
| 2026-04-22 12:01 | 52.27250 | -0.27044 | 6179 ft | 215 kts | 268° |
| 2026-04-22 12:01 | 52.27254 | -0.29485 | 6175 ft | 215 kts | 268° |
| 2026-04-22 12:01 | 52.27258 | -0.31947 | 6169 ft | 217 kts | 268° |
| 2026-04-22 12:01 | 52.27267 | -0.34408 | 6168 ft | 218 kts | 268° |
| 2026-04-22 12:02 | 52.27272 | -0.36864 | 6171 ft | 217 kts | 268° |
| 2026-04-22 12:02 | 52.27279 | -0.39340 | 6169 ft | 217 kts | 268° |
| 2026-04-22 12:02 | 52.27289 | -0.41796 | 6162 ft | 217 kts | 268° |
| 2026-04-22 12:02 | 52.27298 | -0.44275 | 6087 ft | 220 kts | 268° |
| 2026-04-22 12:03 | 52.27306 | -0.46758 | 6003 ft | 222 kts | 268° |
| 2026-04-22 12:03 | 52.27313 | -0.49295 | 6006 ft | 220 kts | 268° |
| 2026-04-22 12:03 | 52.27325 | -0.51760 | 6007 ft | 219 kts | 268° |
| 2026-04-22 12:03 | 52.27332 | -0.54273 | 6004 ft | 218 kts | 267° |
| 2026-04-22 12:04 | 52.27342 | -0.56727 | 6005 ft | 218 kts | 268° |
| 2026-04-22 12:04 | 52.27351 | -0.59194 | 6001 ft | 217 kts | 268° |
| 2026-04-22 12:04 | 52.27359 | -0.61661 | 6000 ft | 217 kts | 267° |
| 2026-04-22 12:04 | 52.27367 | -0.64132 | 6006 ft | 218 kts | 268° |
| 2026-04-22 12:05 | 52.27370 | -0.65798 | 6001 ft | 218 kts | 268° |
| 2026-04-22 12:05 | 52.27371 | -0.68248 | 6001 ft | 218 kts | 267° |
| 2026-04-22 12:05 | 52.27377 | -0.70713 | 6007 ft | 219 kts | 268° |
| 2026-04-22 12:05 | 52.27386 | -0.73181 | 6004 ft | 215 kts | 268° |
| 2026-04-22 12:06 | 52.27398 | -0.75611 | 5991 ft | 212 kts | 268° |
| 2026-04-22 12:06 | 52.27408 | -0.78003 | 5998 ft | 210 kts | 268° |
| 2026-04-22 12:06 | 52.27420 | -0.80396 | 5999 ft | 211 kts | 268° |
| 2026-04-22 12:06 | 52.27433 | -0.82780 | 5988 ft | 209 kts | 268° |
| 2026-04-22 12:07 | 52.27447 | -0.85139 | 5995 ft | 207 kts | 267° |
| 2026-04-22 12:07 | 52.27460 | -0.87496 | 5994 ft | 208 kts | 267° |
| 2026-04-22 12:07 | 52.27668 | -0.89836 | 5993 ft | 211 kts | 290° |
| 2026-04-22 12:07 | 52.28446 | -0.91806 | 5994 ft | 208 kts | 315° |
| 2026-04-22 12:08 | 52.29482 | -0.93442 | 6021 ft | 208 kts | 320° |
| 2026-04-22 12:08 | 52.30509 | -0.95093 | 6122 ft | 206 kts | 317° |
| 2026-04-22 12:08 | 52.31505 | -0.96794 | 6259 ft | 206 kts | 316° |
| 2026-04-22 12:08 | 52.32488 | -0.98490 | 6374 ft | 207 kts | 316° |
| 2026-04-22 12:09 | 52.33500 | -1.00227 | 6375 ft | 212 kts | 316° |
| 2026-04-22 12:09 | 52.34520 | -1.01976 | 6392 ft | 214 kts | 316° |
| 2026-04-22 12:09 | 52.35550 | -1.03742 | 6387 ft | 217 kts | 316° |
| 2026-04-22 12:09 | 52.36598 | -1.05548 | 6389 ft | 218 kts | 316° |
| 2026-04-22 12:10 | 52.37634 | -1.07330 | 6394 ft | 218 kts | 316° |
| 2026-04-22 12:10 | 52.38679 | -1.09125 | 6390 ft | 219 kts | 316° |
| 2026-04-22 12:10 | 52.39738 | -1.10952 | 6401 ft | 219 kts | 316° |
| 2026-04-22 12:10 | 52.40789 | -1.12762 | 6394 ft | 220 kts | 316° |
| 2026-04-22 12:11 | 52.41843 | -1.14579 | 6398 ft | 220 kts | 316° |
| 2026-04-22 12:11 | 52.42896 | -1.16396 | 6315 ft | 220 kts | 315° |
| 2026-04-22 12:11 | 52.43939 | -1.18194 | 6316 ft | 220 kts | 315° |
| 2026-04-22 12:11 | 52.44994 | -1.20020 | 6305 ft | 221 kts | 315° |
| 2026-04-22 12:12 | 52.46043 | -1.21837 | 6294 ft | 218 kts | 315° |
| 2026-04-22 12:12 | 52.47088 | -1.23648 | 6289 ft | 218 kts | 316° |
| 2026-04-22 12:12 | 52.48138 | -1.25463 | 6288 ft | 219 kts | 315° |
| 2026-04-22 12:12 | 52.49187 | -1.27282 | 6276 ft | 219 kts | 315° |
| 2026-04-22 12:13 | 52.50227 | -1.29086 | 6274 ft | 218 kts | 315° |
| 2026-04-22 12:13 | 52.51273 | -1.30902 | 6270 ft | 218 kts | 315° |
| 2026-04-22 12:13 | 52.52320 | -1.32722 | 6264 ft | 220 kts | 315° |
| 2026-04-22 12:13 | 52.53376 | -1.34556 | 6250 ft | 220 kts | 316° |
| 2026-04-22 12:14 | 52.54590 | -1.35995 | 6242 ft | 213 kts | 339° |
| 2026-04-22 12:14 | 52.55949 | -1.36844 | 6239 ft | 211 kts | 345° |
| 2026-04-22 12:14 | 52.57330 | -1.37689 | 6245 ft | 212 kts | 345° |
| 2026-04-22 12:14 | 52.58716 | -1.38519 | 6237 ft | 212 kts | 345° |
| 2026-04-22 12:15 | 52.60105 | -1.39354 | 6247 ft | 213 kts | 345° |
| 2026-04-22 12:15 | 52.61518 | -1.40209 | 6241 ft | 213 kts | 345° |
| 2026-04-22 12:15 | 52.62885 | -1.41036 | 6241 ft | 211 kts | 345° |
| 2026-04-22 12:15 | 52.64263 | -1.41866 | 6233 ft | 211 kts | 345° |
| 2026-04-22 12:16 | 52.65638 | -1.42699 | 6236 ft | 211 kts | 345° |
| 2026-04-22 12:16 | 52.67002 | -1.43524 | 6236 ft | 211 kts | 345° |
| 2026-04-22 12:16 | 52.68389 | -1.44367 | 6241 ft | 211 kts | 345° |
| 2026-04-22 12:16 | 52.69769 | -1.45203 | 6233 ft | 211 kts | 345° |
| 2026-04-22 12:17 | 52.71147 | -1.46037 | 6243 ft | 212 kts | 345° |
| 2026-04-22 12:17 | 52.72535 | -1.46882 | 6242 ft | 212 kts | 344° |
| 2026-04-22 12:17 | 52.73922 | -1.47720 | 6252 ft | 212 kts | 345° |
| 2026-04-22 12:17 | 52.75291 | -1.48555 | 6380 ft | 210 kts | 344° |
| 2026-04-22 12:18 | 52.76653 | -1.49382 | 6373 ft | 210 kts | 345° |
| 2026-04-22 12:18 | 52.78036 | -1.50224 | 6368 ft | 212 kts | 345° |
| 2026-04-22 12:18 | 52.79414 | -1.51070 | 6369 ft | 211 kts | 345° |
| 2026-04-22 12:18 | 52.80795 | -1.51905 | 6372 ft | 211 kts | 345° |
| 2026-04-22 12:19 | 52.82172 | -1.52738 | 6380 ft | 212 kts | 344° |
| 2026-04-22 12:19 | 52.83564 | -1.53600 | 6379 ft | 213 kts | 345° |
| 2026-04-22 12:19 | 52.84955 | -1.54447 | 6370 ft | 213 kts | 345° |
| 2026-04-22 12:19 | 52.86339 | -1.55296 | 6370 ft | 212 kts | 345° |
| 2026-04-22 12:20 | 52.87726 | -1.56161 | 6374 ft | 212 kts | 345° |
| 2026-04-22 12:20 | 52.89111 | -1.56994 | 6364 ft | 211 kts | 345° |
| 2026-04-22 12:20 | 52.90476 | -1.57820 | 6373 ft | 211 kts | 345° |
| 2026-04-22 12:20 | 52.91851 | -1.58660 | 6378 ft | 213 kts | 345° |
| 2026-04-22 12:21 | 52.93239 | -1.59515 | 6382 ft | 213 kts | 344° |
| 2026-04-22 12:21 | 52.94640 | -1.60377 | 6382 ft | 214 kts | 344° |
| 2026-04-22 12:21 | 52.96045 | -1.61239 | 6383 ft | 216 kts | 345° |
| 2026-04-22 12:21 | 52.97446 | -1.62101 | 6378 ft | 214 kts | 345° |
| 2026-04-22 12:22 | 52.98843 | -1.62965 | 6388 ft | 215 kts | 345° |
| 2026-04-22 12:22 | 53.00245 | -1.63817 | 6382 ft | 215 kts | 345° |
| 2026-04-22 12:22 | 53.01642 | -1.64674 | 6381 ft | 214 kts | 344° |
| 2026-04-22 12:22 | 53.03036 | -1.65545 | 6389 ft | 214 kts | 345° |
| 2026-04-22 12:23 | 53.04423 | -1.66399 | 6389 ft | 212 kts | 345° |
| 2026-04-22 12:23 | 53.05788 | -1.67240 | 6396 ft | 213 kts | 345° |
| 2026-04-22 12:23 | 53.07202 | -1.68107 | 6390 ft | 213 kts | 345° |
| 2026-04-22 12:23 | 53.08584 | -1.68965 | 6392 ft | 212 kts | 344° |
| 2026-04-22 12:24 | 53.09960 | -1.69815 | 6402 ft | 213 kts | 345° |
| 2026-04-22 12:24 | 53.11354 | -1.70682 | 6402 ft | 213 kts | 345° |
| 2026-04-22 12:24 | 53.12735 | -1.71539 | 6396 ft | 212 kts | 345° |
| 2026-04-22 12:24 | 53.14115 | -1.72391 | 6411 ft | 212 kts | 345° |
| 2026-04-22 12:25 | 53.15507 | -1.73253 | 6408 ft | 213 kts | 345° |
| 2026-04-22 12:25 | 53.16900 | -1.74120 | 6396 ft | 214 kts | 345° |
| 2026-04-22 12:25 | 53.18293 | -1.74985 | 6395 ft | 212 kts | 345° |
| 2026-04-22 12:25 | 53.19678 | -1.75847 | 6394 ft | 212 kts | 345° |
| 2026-04-22 12:26 | 53.21056 | -1.76702 | 6406 ft | 212 kts | 345° |
| 2026-04-22 12:26 | 53.22446 | -1.77565 | 6401 ft | 213 kts | 344° |
| 2026-04-22 12:26 | 53.23841 | -1.78435 | 6400 ft | 213 kts | 344° |
| 2026-04-22 12:26 | 53.25230 | -1.79306 | 6410 ft | 213 kts | 345° |
| 2026-04-22 12:27 | 53.26614 | -1.80168 | 6401 ft | 213 kts | 345° |
| 2026-04-22 12:27 | 53.27983 | -1.81022 | 6398 ft | 212 kts | 345° |
| 2026-04-22 12:27 | 53.29368 | -1.81890 | 6393 ft | 210 kts | 345° |
| 2026-04-22 12:27 | 53.30727 | -1.82734 | 6398 ft | 209 kts | 346° |
| 2026-04-22 12:28 | 53.32093 | -1.83594 | 6404 ft | 210 kts | 344° |
| 2026-04-22 12:28 | 53.33452 | -1.84442 | 6395 ft | 209 kts | 344° |
| 2026-04-22 12:28 | 53.34824 | -1.85297 | 6397 ft | 212 kts | 344° |
| 2026-04-22 12:28 | 53.36209 | -1.86167 | 6391 ft | 214 kts | 344° |
| 2026-04-22 12:29 | 53.37595 | -1.87040 | 6398 ft | 213 kts | 345° |
| 2026-04-22 12:29 | 53.38991 | -1.87913 | 6390 ft | 213 kts | 344° |
| 2026-04-22 12:29 | 53.40358 | -1.88780 | 6391 ft | 209 kts | 345° |
| 2026-04-22 12:29 | 53.41728 | -1.89636 | 6398 ft | 210 kts | 343° |
| 2026-04-22 12:30 | 53.44437 | -1.91340 | 6399 ft | 209 kts | 344° |
| 2026-04-22 12:30 | 53.45817 | -1.92209 | 6399 ft | 212 kts | 344° |
| 2026-04-22 12:30 | 53.47205 | -1.93085 | 6401 ft | 213 kts | 343° |
| 2026-04-22 12:31 | 53.48591 | -1.93953 | 6402 ft | 212 kts | 344° |
| 2026-04-22 12:31 | 53.49977 | -1.94836 | 6401 ft | 212 kts | 344° |
| 2026-04-22 12:31 | 53.51357 | -1.95704 | 6394 ft | 212 kts | 344° |
| 2026-04-22 12:31 | 53.52716 | -1.96563 | 6401 ft | 206 kts | 344° |
| 2026-04-22 12:32 | 53.54051 | -1.97406 | 6406 ft | 206 kts | 343° |
| 2026-04-22 12:32 | 53.56756 | -1.99123 | 6404 ft | 206 kts | 345° |
| 2026-04-22 12:32 | 53.58110 | -1.99974 | 6402 ft | 209 kts | 345° |
| 2026-04-22 12:33 | 53.59470 | -2.00837 | 6415 ft | 210 kts | 344° |
| 2026-04-22 12:33 | 53.60383 | -2.01417 | 6406 ft | 210 kts | 343° |
| 2026-04-22 12:33 | 53.61756 | -2.02288 | 6410 ft | 211 kts | 344° |
| 2026-04-22 12:33 | 53.63138 | -2.03168 | 6406 ft | 211 kts | 344° |
| 2026-04-22 12:34 | 53.64510 | -2.04039 | 6421 ft | 212 kts | 344° |
| 2026-04-22 12:34 | 53.65887 | -2.04916 | 6412 ft | 210 kts | 344° |
| 2026-04-22 12:34 | 53.67261 | -2.05786 | 6417 ft | 212 kts | 344° |
| 2026-04-22 12:34 | 53.68639 | -2.06665 | 6416 ft | 211 kts | 344° |
| 2026-04-22 12:35 | 53.70019 | -2.07547 | 6417 ft | 212 kts | 343° |
| 2026-04-22 12:35 | 53.71404 | -2.08431 | 6420 ft | 213 kts | 343° |
| 2026-04-22 12:35 | 53.72779 | -2.09302 | 6414 ft | 215 kts | 343° |
| 2026-04-22 12:35 | 53.74175 | -2.10199 | 6421 ft | 216 kts | 342° |
| 2026-04-22 12:36 | 53.75565 | -2.11174 | 6412 ft | 215 kts | 342° |
| 2026-04-22 12:36 | 53.76955 | -2.12094 | 6418 ft | 216 kts | 343° |